Time;durP1;ratioP1;P1;durP2;ratioP2;P2;SDS_P1;SDS_P2;PMS_P1;PMS_P2;Temp;Humidity;BMP_temperature;BMP_pressure;BME280_temperature;BME280_humidity;BME280_pressure;Samples;Min_cycle;Max_cycle;Signal;HPM_P1;HPM_P2
2021/06/23 00:01:14;;;;;;;16.90;3.87;;;;;;;23.22;100.00;98829.35;1759875;80;21415;-70
2021/06/23 00:03:43;;;;;;;11.68;3.87;;;;;;;23.21;100.00;98828.97;1759641;79;20946;-70
2021/06/23 00:06:15;;;;;;;12.13;3.08;;;;;;;23.19;100.00;98826.86;1759119;80;20907;-71
2021/06/23 00:08:47;;;;;;;13.88;3.45;;;;;;;23.20;100.00;98827.23;1764861;79;21413;-69
2021/06/23 00:11:20;;;;;;;12.73;3.17;;;;;;;23.19;100.00;98824.16;1772300;79;21323;-70
2021/06/23 00:13:50;;;;;;;12.88;3.40;;;;;;;23.18;100.00;98820.22;1769950;79;21615;-70
2021/06/23 00:16:19;;;;;;;20.77;3.65;;;;;;;23.15;100.00;98819.04;1760399;80;20956;-70
2021/06/23 00:18:49;;;;;;;13.55;3.87;;;;;;;23.13;100.00;98816.92;1758589;81;21400;-70
2021/06/23 00:21:17;;;;;;;15.38;3.85;;;;;;;23.09;100.00;98808.18;1759014;80;21414;-70
2021/06/23 00:23:46;;;;;;;13.90;3.55;;;;;;;23.07;100.00;98815.96;1759815;80;21097;-70
2021/06/23 00:26:16;;;;;;;9.60;3.90;;;;;;;23.05;100.00;98813.37;1766201;79;21442;-70
2021/06/23 00:28:44;;;;;;;10.48;3.22;;;;;;;23.05;100.00;98814.72;1758999;81;21434;-71
2021/06/23 00:31:13;;;;;;;9.48;3.33;;;;;;;23.04;100.00;98809.42;1740089;81;20868;-71
2021/06/23 00:33:41;;;;;;;13.78;3.77;;;;;;;23.01;100.00;98804.23;1738957;81;20988;-71
2021/06/23 00:36:11;;;;;;;11.80;4.17;;;;;;;22.99;100.00;98803.47;1759705;80;21436;-70
2021/06/23 00:38:39;;;;;;;15.83;3.80;;;;;;;22.92;100.00;98809.23;1758655;80;21423;-70
2021/06/23 00:41:09;;;;;;;13.38;3.52;;;;;;;22.87;100.00;98809.12;1758884;80;21085;-71
2021/06/23 00:43:39;;;;;;;19.23;3.80;;;;;;;22.83;100.00;98805.77;1692458;83;21592;-70
2021/06/23 00:46:10;;;;;;;12.45;4.33;;;;;;;22.79;100.00;98804.19;1721211;82;21013;-70
2021/06/23 00:48:41;;;;;;;18.60;4.08;;;;;;;22.77;100.00;98797.17;1704669;82;21934;-70
2021/06/23 00:51:11;;;;;;;17.92;3.67;;;;;;;22.74;100.00;98798.71;1717435;82;20969;-70
2021/06/23 00:53:47;;;;;;;16.15;3.37;;;;;;;22.71;100.00;98800.24;1698003;82;21518;-71
2021/06/23 00:56:16;;;;;;;13.90;3.60;;;;;;;22.65;100.00;98799.23;1717255;82;20952;-70
2021/06/23 00:58:47;;;;;;;16.40;3.75;;;;;;;22.61;100.00;98795.39;1717483;83;21411;-71
2021/06/23 01:01:21;;;;;;;13.85;3.12;;;;;;;22.58;100.00;98796.06;1717283;82;21093;-70
2021/06/23 01:03:53;;;;;;;15.20;3.45;;;;;;;22.55;100.00;98789.52;1716851;82;20945;-71
2021/06/23 01:06:26;;;;;;;13.22;3.30;;;;;;;22.57;100.00;98788.47;1717153;82;21434;-68
2021/06/23 01:08:59;;;;;;;14.43;3.80;;;;;;;22.57;100.00;98799.70;1717385;82;20926;-68
2021/06/23 01:11:33;;;;;;;15.23;3.87;;;;;;;22.55;100.00;98799.80;1698498;82;21457;-68
2021/06/23 01:14:04;;;;;;;12.60;3.37;;;;;;;22.54;100.00;98799.41;1717373;82;21433;-67
2021/06/23 01:16:36;;;;;;;17.92;4.08;;;;;;;22.53;100.00;98796.34;1723724;82;21372;-67
2021/06/23 01:19:13;;;;;;;15.18;4.05;;;;;;;22.51;100.00;98791.53;1723185;82;21430;-67
2021/06/23 01:21:46;;;;;;;17.77;4.03;;;;;;;22.48;100.00;98787.69;1748626;80;21593;-68
2021/06/23 01:24:17;;;;;;;18.65;4.17;;;;;;;22.47;100.00;98782.41;1754407;80;21414;-68
2021/06/23 01:26:46;;;;;;;12.40;3.22;;;;;;;22.46;100.00;98779.33;1723312;83;21901;-67
2021/06/23 01:29:15;;;;;;;18.12;4.05;;;;;;;22.46;100.00;98782.88;1736444;81;20971;-68
2021/06/23 01:31:52;;;;;;;17.42;3.87;;;;;;;22.48;100.00;98783.66;1760019;79;20892;-68
2021/06/23 01:34:21;;;;;;;;;;;;;;;22.49;100.00;98780.48;1736779;82;21411;-68
2021/06/23 01:36:50;;;;;;;17.07;4.15;;;;;;;22.49;100.00;98784.04;1753471;80;20424;-68
2021/06/23 01:39:19;;;;;;;23.02;3.50;;;;;;;22.46;100.00;98785.57;1753041;80;21142;-68
2021/06/23 01:41:49;;;;;;;18.57;4.03;;;;;;;22.45;100.00;98777.60;1764383;80;20984;-68
2021/06/23 01:44:20;;;;;;;14.55;3.42;;;;;;;22.39;100.00;98778.84;1765046;79;20999;-68
2021/06/23 01:46:50;;;;;;;16.35;3.75;;;;;;;;;;1755091;79;21534;-68
2021/06/23 01:49:22;;;;;;;18.75;4.42;;;;;;;22.32;100.00;98789.56;1734057;81;21398;-68
2021/06/23 01:51:51;;;;;;;14.18;3.72;;;;;;;22.29;100.00;98785.72;1718832;82;22126;-69
2021/06/23 01:54:21;;;;;;;17.20;3.30;;;;;;;22.27;100.00;98787.63;1704532;83;20879;-68
2021/06/23 01:56:49;;;;;;;24.20;3.75;;;;;;;22.26;100.00;98791.27;1710469;82;21517;-68
2021/06/23 01:59:19;;;;;;;22.85;3.83;;;;;;;22.25;100.00;98793.58;1742915;79;21466;-68
2021/06/23 02:02:03;;;;;;;22.10;4.00;;;;;;;22.23;100.00;98794.11;1766779;79;21518;-68
2021/06/23 02:04:53;;;;;;;21.05;4.33;;;;;;;22.19;100.00;98795.25;1768664;79;21081;-68
2021/06/23 02:07:49;;;;;;;18.50;4.17;;;;;;;22.17;100.00;98792.66;1771173;79;21477;-67
2021/06/23 02:10:36;;;;;;;18.52;3.22;;;;;;;22.13;100.00;98792.45;1767420;79;21015;-68
2021/06/23 02:13:46;;;;;;;20.77;4.55;;;;;;;22.11;100.00;98793.02;1755179;80;21440;-69
2021/06/23 02:16:25;;;;;;;;;;;;;;;22.08;100.00;98803.94;1667828;84;20995;-68
2021/06/23 02:19:05;;;;;;;18.95;3.85;;;;;;;22.05;100.00;98804.12;1755100;80;21926;-68
2021/06/23 02:21:53;;;;;;;20.48;3.77;;;;;;;22.04;100.00;98805.08;1755098;80;21453;-68
2021/06/23 02:24:28;;;;;;;20.15;4.30;;;;;;;22.06;100.00;98807.67;1755494;80;21469;-68
2021/06/23 02:27:04;;;;;;;17.15;3.47;;;;;;;22.08;100.00;98811.13;1718478;83;21419;-69
2021/06/23 02:29:32;;;;;;;22.32;4.40;;;;;;;22.10;100.00;98809.22;1718687;82;20940;-68
2021/06/23 02:32:01;;;;;;;18.62;4.25;;;;;;;22.10;100.00;98814.59;1719034;82;21418;-67
2021/06/23 02:34:32;;;;;;;17.65;3.67;;;;;;;22.09;100.00;98808.36;1754908;80;21406;-68
2021/06/23 02:37:14;;;;;;;;;;;;;;;22.08;100.00;98811.13;1761535;79;20929;-69
2021/06/23 02:39:42;;;;;;;17.85;3.92;;;;;;;22.07;100.00;98815.64;1736304;81;20081;-68
2021/06/23 02:42:11;;;;;;;20.75;3.70;;;;;;;22.05;100.00;98818.89;1755637;80;20915;-68
2021/06/23 02:44:40;;;;;;;23.02;4.10;;;;;;;22.03;100.00;98822.59;1755428;80;21408;-69
2021/06/23 02:47:09;;;;;;;14.93;3.52;;;;;;;22.00;100.00;98825.84;1756565;80;20880;-68
2021/06/23 02:49:39;;;;;;;12.05;3.72;;;;;;;22.00;100.00;98834.37;1753914;80;20928;-68
2021/06/23 02:52:09;;;;;;;16.23;3.95;;;;;;;22.01;100.00;98836.11;1728479;81;21427;-68
2021/06/23 02:54:37;;;;;;;21.15;4.78;;;;;;;22.03;100.00;98841.39;1667692;84;20935;-68
2021/06/23 02:57:07;;;;;;;23.60;4.10;;;;;;;22.04;100.00;98849.39;1714914;83;21406;-68
2021/06/23 02:59:37;;;;;;;21.68;4.37;;;;;;;22.06;100.00;98839.91;1712743;82;20897;-69
2021/06/23 03:02:06;;;;;;;22.05;4.22;;;;;;;22.06;100.00;98844.80;1713928;82;21443;-69
2021/06/23 03:04:35;;;;;;;25.23;4.53;;;;;;;22.10;100.00;98854.41;1714637;82;20864;-70
2021/06/23 03:07:16;;;;;;;30.08;4.30;;;;;;;22.13;100.00;98853.36;1711706;83;21443;-69
2021/06/23 03:09:46;;;;;;;23.00;4.78;;;;;;;22.16;100.00;98856.73;1708511;83;21129;-68
2021/06/23 03:12:34;;;;;;;20.55;5.53;;;;;;;22.19;100.00;98859.73;1716853;83;20927;-68
2021/06/23 03:15:08;;;;;;;30.75;5.80;;;;;;;22.24;100.00;98856.33;1712524;82;21486;-69
2021/06/23 03:17:37;;;;;;;25.82;4.85;;;;;;;22.28;100.00;98857.40;1704704;84;20949;-69
2021/06/23 03:20:10;;;;;;;25.45;5.03;;;;;;;22.33;100.00;98857.61;1681033;83;20973;-69
2021/06/23 03:22:40;;;;;;;20.37;4.22;;;;;;;;;;1704208;82;21103;-69
2021/06/23 03:25:09;;;;;;;29.10;4.72;;;;;;;22.37;100.00;98856.00;1710565;83;21420;-68
2021/06/23 03:27:38;;;;;;;23.67;4.05;;;;;;;22.41;100.00;98860.23;1711761;83;21533;-69
2021/06/23 03:30:08;;;;;;;31.25;4.87;;;;;;;22.44;100.00;98853.81;1712026;83;21460;-69
2021/06/23 03:32:36;;;;;;;32.28;5.60;;;;;;;22.47;100.00;98859.88;1711691;83;20881;-69
2021/06/23 03:35:06;;;;;;;34.10;5.62;;;;;;;22.51;100.00;98866.80;1707605;83;21135;-69
2021/06/23 03:37:34;;;;;;;28.52;4.72;;;;;;;22.54;100.00;98866.61;1704662;84;20924;-69
2021/06/23 03:40:05;;;;;;;34.48;5.28;;;;;;;22.56;100.00;98862.02;1705204;83;21441;-68
2021/06/23 03:42:35;;;;;;;25.57;4.87;;;;;;;22.59;100.00;98863.17;1680727;84;20933;-69
2021/06/23 03:45:05;;;;;;;24.45;5.37;;;;;;;22.65;100.00;98859.73;1710398;83;20937;-68
2021/06/23 03:47:33;;;;;;;24.32;4.87;;;;;;;22.68;100.00;98860.41;1685169;83;21094;-67
2021/06/23 03:50:02;;;;;;;30.52;5.22;;;;;;;22.74;100.00;98861.42;1682690;84;21495;-67
2021/06/23 03:52:31;;;;;;;26.05;4.97;;;;;;;22.78;100.00;98867.00;1701065;83;20976;-66
2021/06/23 03:54:58;;;;;;;21.23;5.05;;;;;;;22.82;100.00;98875.30;1702495;83;20952;-68
2021/06/23 03:57:28;;;;;;;26.97;4.92;;;;;;;22.89;100.00;98871.77;1701215;83;21063;-66
2021/06/23 03:59:57;;;;;;;30.25;5.03;;;;;;;22.94;100.00;98871.00;1681418;84;21091;-66
2021/06/23 04:02:25;;;;;;;22.32;4.92;;;;;;;23.00;100.00;98865.73;1709078;82;20904;-68
2021/06/23 04:04:55;;;;;;;21.87;4.60;;;;;;;23.09;100.00;98865.16;1769070;79;20935;-62
2021/06/23 04:07:29;;;;;;;25.25;4.95;;;;;;;23.17;100.00;98861.03;1764144;79;20909;-62
2021/06/23 04:09:58;;;;;;;34.13;5.95;;;;;;;23.23;100.00;98854.44;1745177;80;21013;-67
2021/06/23 04:12:28;;;;;;;31.75;5.62;;;;;;;23.27;100.00;98855.11;1707638;84;21917;-68
2021/06/23 04:14:57;;;;;;;33.20;5.35;;;;;;;23.33;100.00;98854.73;1709248;83;20891;-68
2021/06/23 04:17:26;;;;;;;29.48;4.90;;;;;;;23.39;100.00;98851.64;1734027;82;20937;-68
2021/06/23 04:19:55;;;;;;;23.57;5.20;;;;;;;23.46;100.00;98854.34;1744168;82;21431;-68
2021/06/23 04:22:28;;;;;;;34.45;5.75;;;;;;;23.50;100.00;98854.52;1705083;82;21482;-68
2021/06/23 04:25:01;;;;;;;33.40;5.87;;;;;;;23.54;100.00;98851.54;1707866;84;21548;-68
2021/06/23 04:27:29;;;;;;;32.45;6.03;;;;;;;23.59;100.00;98848.58;1708651;82;20909;-68
2021/06/23 04:29:57;;;;;;;30.02;4.90;;;;;;;23.67;100.00;98850.34;1709301;82;20887;-68
2021/06/23 04:32:26;;;;;;;36.95;6.20;;;;;;;23.74;100.00;98846.28;1687533;83;20960;-68
2021/06/23 04:34:55;;;;;;;37.03;6.67;;;;;;;23.81;100.00;98840.88;1744733;80;21424;-68
2021/06/23 04:37:25;;;;;;;29.10;6.92;;;;;;;23.88;100.00;98843.17;1704019;82;21953;-68
2021/06/23 04:39:56;;;;;;;31.70;6.12;;;;;;;23.96;100.00;98840.36;1760499;80;20884;-67
2021/06/23 04:42:25;;;;;;;30.95;5.83;;;;;;;24.04;100.00;98844.77;1760435;80;20856;-67
2021/06/23 04:44:54;;;;;;;32.15;5.95;;;;;;;24.12;100.00;98842.91;1755192;80;20929;-67
2021/06/23 04:47:22;;;;;;;40.25;6.47;;;;;;;24.20;100.00;98843.30;1745171;82;21300;-68
2021/06/23 04:49:50;;;;;;;29.05;5.50;;;;;;;24.27;100.00;98845.09;1746312;80;21099;-68
2021/06/23 04:52:21;;;;;;;32.90;5.97;;;;;;;24.34;100.00;98841.92;1757130;80;21392;-68
2021/06/23 04:54:49;;;;;;;38.00;6.65;;;;;;;24.44;100.00;98847.07;1762445;79;20876;-67
2021/06/23 04:57:18;;;;;;;39.85;6.55;;;;;;;24.51;100.00;98844.82;1771467;79;21462;-68
2021/06/23 04:59:47;;;;;;;38.02;6.10;;;;;;;24.58;100.00;98838.52;1770722;79;20852;-68
2021/06/23 05:02:15;;;;;;;28.55;5.83;;;;;;;24.65;100.00;98833.13;1771436;79;21100;-68
2021/06/23 05:04:45;;;;;;;38.02;5.87;;;;;;;24.73;100.00;98837.02;1759923;80;20836;-68
2021/06/23 05:07:13;;;;;;;26.70;5.55;;;;;;;24.83;100.00;98830.50;1758315;80;20896;-68
2021/06/23 05:09:41;;;;;;;29.92;5.37;;;;;;;24.91;100.00;98829.48;1766999;79;21402;-67
2021/06/23 05:12:10;;;;;;;36.80;6.25;;;;;;;24.98;100.00;98826.77;1771824;79;20982;-68
2021/06/23 05:14:38;;;;;;;36.88;5.97;;;;;;;25.07;100.00;98822.59;1770751;79;21115;-67
2021/06/23 05:17:06;;;;;;;40.08;5.90;;;;;;;25.14;100.00;98817.63;1771817;79;21036;-67
2021/06/23 05:19:37;;;;;;;30.60;6.00;;;;;;;25.21;100.00;98812.16;1771770;79;20974;-66
2021/06/23 05:22:05;;;;;;;39.20;6.22;;;;;;;25.29;100.00;98817.88;1766474;79;20877;-61
2021/06/23 05:24:33;;;;;;;36.00;6.05;;;;;;;25.36;100.00;98808.36;1758433;81;20900;-62
2021/06/23 05:27:01;;;;;;;37.30;6.05;;;;;;;25.41;100.00;98807.55;1721609;82;21182;-68
2021/06/23 05:29:29;;;;;;;29.57;5.78;;;;;;;25.48;100.00;98801.21;1722175;82;21435;-68
2021/06/23 05:31:56;;;;;;;32.58;7.62;;;;;;;25.53;100.00;98796.34;1720891;82;20984;-68
2021/06/23 05:34:24;;;;;;;42.23;7.45;;;;;;;25.60;100.00;98797.65;1714119;83;21396;-68
2021/06/23 05:36:51;;;;;;;32.15;5.92;;;;;;;25.69;100.00;98796.52;1713939;83;20893;-68
2021/06/23 05:39:18;;;;;;;45.38;6.25;;;;;;;25.74;100.00;98794.83;1714111;83;21172;-69
2021/06/23 05:41:46;;;;;;;30.60;6.03;;;;;;;25.80;100.00;98790.81;1713826;83;20908;-68
2021/06/23 05:44:14;;;;;;;38.95;5.92;;;;;;;25.87;100.00;98790.24;1716311;83;20924;-69
2021/06/23 05:46:41;;;;;;;37.13;6.03;;;;;;;25.91;100.00;98786.83;1719362;82;20959;-69
2021/06/23 05:49:08;;;;;;;31.10;6.47;;;;;;;25.95;100.00;98787.83;1719587;83;20923;-68
2021/06/23 05:51:36;;;;;;;41.15;6.17;;;;;;;26.02;100.00;98786.91;1708245;82;21096;-67
2021/06/23 05:54:04;;;;;;;34.43;6.03;;;;;;;26.07;100.00;98786.08;1696997;84;20940;-69
2021/06/23 05:56:32;;;;;;;36.63;6.12;;;;;;;26.16;100.00;98789.92;1693603;84;20854;-69
2021/06/23 05:58:59;;;;;;;30.32;5.50;;;;;;;26.24;100.00;98785.66;1699883;83;20932;-69
2021/06/23 06:01:27;;;;;;;32.40;6.50;;;;;;;26.31;100.00;98787.41;1675478;84;20928;-68
2021/06/23 06:03:54;;;;;;;26.50;6.35;;;;;;;26.37;100.00;98783.41;1687498;84;21802;-69
2021/06/23 06:06:22;;;;;;;38.35;6.83;;;;;;;26.41;100.00;98775.43;1684616;84;20913;-67
2021/06/23 06:08:49;;;;;;;31.27;5.85;;;;;;;26.47;100.00;98781.23;1680444;85;20955;-68
2021/06/23 06:11:17;;;;;;;34.15;6.17;;;;;;;26.53;100.00;98781.28;1702809;83;20941;-69
2021/06/23 06:13:46;;;;;;;36.45;6.12;;;;;;;26.59;100.00;98775.39;1710980;82;20940;-67
2021/06/23 06:16:13;;;;;;;31.10;5.45;;;;;;;26.64;100.00;98779.46;1709609;83;21122;-68
2021/06/23 06:18:44;;;;;;;29.55;5.33;;;;;;;26.69;100.00;98777.75;1708658;83;21420;-68
2021/06/23 06:21:11;;;;;;;39.53;6.62;;;;;;;26.73;100.00;98770.26;1709625;82;20859;-68
2021/06/23 06:23:38;;;;;;;27.60;5.28;;;;;;;26.78;100.00;98766.70;1750674;80;20919;-68
2021/06/23 06:26:07;;;;;;;27.67;5.45;;;;;;;26.81;100.00;98771.38;1738326;81;20949;-73
2021/06/23 06:28:35;;;;;;;24.98;4.55;;;;;;;26.85;100.00;98772.86;1730353;82;21099;-72
2021/06/23 06:31:02;;;;;;;28.32;5.17;;;;;;;26.91;100.00;98772.38;1745617;80;20920;-72
2021/06/23 06:33:30;;;;;;;30.05;6.20;;;;;;;26.97;100.00;98771.06;1745878;80;20909;-74
2021/06/23 06:35:59;;;;;;;23.15;5.45;;;;;;;27.04;100.00;98776.39;1745495;80;20884;-70
2021/06/23 06:38:27;;;;;;;28.17;5.78;;;;;;;27.08;100.00;98771.59;1736107;82;20984;-70
2021/06/23 06:40:54;;;;;;;30.35;5.33;;;;;;;27.15;100.00;98771.47;1734469;80;21095;-70
2021/06/23 06:43:22;;;;;;;33.58;5.25;;;;;;;27.19;100.00;98762.98;1760453;80;20836;-69
2021/06/23 06:45:51;;;;;;;30.35;5.47;;;;;;;27.25;100.00;98767.04;1760710;80;20876;-69
2021/06/23 06:48:21;;;;;;;27.50;5.65;;;;;;;27.28;100.00;98760.88;1760806;80;21497;-69
2021/06/23 06:50:48;;;;;;;26.48;4.72;;;;;;;27.31;100.00;98765.19;1760865;80;20954;-68
2021/06/23 06:53:16;;;;;;;21.25;4.85;;;;;;;27.34;100.00;98763.59;1760504;80;21962;-70
2021/06/23 06:55:44;;;;;;;25.77;5.08;;;;;;;27.37;100.00;98758.41;1760929;80;20883;-69
2021/06/23 06:58:11;;;;;;;23.70;5.00;;;;;;;27.41;100.00;98770.23;1760647;80;20924;-69
2021/06/23 07:00:39;;;;;;;24.63;4.25;;;;;;;27.44;100.00;98767.80;1760969;80;20848;-68
2021/06/23 07:03:07;;;;;;;28.47;4.95;;;;;;;27.49;100.00;98768.28;1760680;80;20899;-70
2021/06/23 07:05:34;;;;;;;22.45;4.50;;;;;;;27.55;100.00;98765.94;1744534;80;21887;-70
2021/06/23 07:08:02;;;;;;;24.07;4.37;;;;;;;27.66;100.00;98765.58;1743662;82;20886;-69
2021/06/23 07:10:30;;;;;;;32.15;5.30;;;;;;;27.73;100.00;98766.30;1743951;82;21433;-69
2021/06/23 07:13:02;;;;;;;31.52;4.95;;;;;;;27.85;100.00;98765.78;1739889;80;20931;-70
2021/06/23 07:15:38;;;;;;;19.42;4.17;;;;;;;27.95;100.00;98765.91;1744766;80;20907;-70
2021/06/23 07:18:06;;;;;;;29.67;4.65;;;;;;;28.06;100.00;98769.93;1759766;80;21104;-70
2021/06/23 07:20:43;;;;;;;33.23;5.37;;;;;;;28.18;100.00;98770.25;1754625;80;20880;-72
2021/06/23 07:23:11;;;;;;;23.67;4.70;;;;;;;28.31;100.00;98775.53;1740803;80;21009;-69
2021/06/23 07:25:40;;;;;;;29.15;4.58;;;;;;;28.40;100.00;98778.36;1756941;80;20915;-68
2021/06/23 07:28:11;;;;;;;26.70;4.25;;;;;;;28.53;100.00;98779.52;1759759;79;20871;-70
2021/06/23 07:30:39;;;;;;;24.92;4.25;;;;;;;28.66;100.00;98784.76;1752027;80;21443;-68
2021/06/23 07:33:08;;;;;;;22.07;4.20;;;;;;;28.77;100.00;98782.84;1757215;80;20895;-70
2021/06/23 07:38:22;;;;;;;24.20;3.98;;;;;;;28.99;100.00;98781.03;1746066;80;20941;-69
2021/06/23 07:41:01;;;;;;;24.55;4.33;;;;;;;29.07;100.00;98776.64;1746214;80;21498;-70
2021/06/23 07:43:21;;;;;;;17.73;4.00;;;;;;;29.13;100.00;98782.03;1744734;81;21105;-72
2021/06/23 07:45:52;;;;;;;21.57;3.70;;;;;;;29.18;100.00;98777.05;1743880;82;21038;-72
2021/06/23 07:48:22;;;;;;;17.17;3.92;;;;;;;29.28;100.00;98780.67;1731772;81;20908;-72
2021/06/23 07:51:03;;;;;;;20.85;4.28;;;;;;;29.35;100.00;98781.87;1720335;81;20946;-71
2021/06/23 07:53:28;;;;;;;20.32;4.33;;;;;;;29.44;100.00;98781.09;1745718;80;20995;-72
2021/06/23 07:56:07;;;;;;;18.50;3.85;;;;;;;29.54;100.00;98783.84;1761235;80;21220;-73
2021/06/23 08:12:17;;;;;;;15.65;3.27;;;;;;;29.92;100.00;98764.57;1727374;81;20908;-69
2021/06/23 08:14:36;;;;;;;23.00;4.15;;;;;;;29.95;100.00;98767.01;1744674;81;20948;-71
2021/06/23 08:17:04;;;;;;;17.82;3.45;;;;;;;29.97;100.00;98763.15;1753686;80;21506;-69
2021/06/23 08:19:33;;;;;;;15.05;2.95;;;;;;;30.01;100.00;98767.80;1745873;81;20927;-69
2021/06/23 08:22:00;;;;;;;22.52;3.50;;;;;;;30.05;100.00;98768.77;1746876;80;21768;-69
2021/06/23 08:24:28;;;;;;;18.35;3.55;;;;;;;30.12;100.00;98765.48;1753176;80;20959;-69
2021/06/23 08:26:55;;;;;;;20.65;3.22;;;;;;;30.18;100.00;98770.35;1761067;80;21530;-69
2021/06/23 08:29:23;;;;;;;21.45;3.72;;;;;;;30.27;100.00;98763.59;1758610;80;20998;-71
2021/06/23 08:31:50;;;;;;;16.65;3.80;;;;;;;30.36;100.00;98769.53;1742446;80;20957;-70
2021/06/23 08:34:18;;;;;;;17.57;3.30;;;;;;;30.44;100.00;98766.59;1744143;82;21053;-72
2021/06/23 08:36:47;;;;;;;14.87;3.70;;;;;;;30.51;100.00;98765.87;1745365;80;21375;-70
2021/06/23 08:39:15;;;;;;;19.27;3.37;;;;;;;30.59;100.00;98771.48;1745173;81;20901;-69
2021/06/23 08:41:42;;;;;;;22.98;3.87;;;;;;;30.67;100.00;98768.03;1745316;80;20978;-67
2021/06/23 08:44:12;;;;;;;17.65;3.33;;;;;;;30.74;100.00;98768.30;1717161;82;20932;-66
2021/06/23 08:46:41;;;;;;;;;;;;;;;30.81;100.00;98773.05;1748080;82;21080;-66
2021/06/23 08:49:09;;;;;;;21.68;3.85;;;;;;;30.91;100.00;98768.94;1744709;81;20105;-66
2021/06/23 08:51:40;;;;;;;16.67;3.10;;;;;;;31.01;100.00;98768.41;1748988;81;21384;-66
2021/06/23 08:54:08;;;;;;;15.20;3.27;;;;;;;31.09;100.00;98764.95;1758979;80;20853;-75
2021/06/23 08:56:36;;;;;;;17.60;3.08;;;;;;;31.19;100.00;98769.89;1771554;79;20899;-72
2021/06/23 08:59:05;;;;;;;19.73;2.62;;;;;;;31.26;100.00;98765.09;1769186;80;21925;-72
2021/06/23 09:01:33;;;;;;;17.23;3.37;;;;;;;31.34;100.00;98760.25;1765049;79;20903;-77
2021/06/23 09:04:08;;;;;;;19.82;3.08;;;;;;;31.40;100.00;98762.88;1759927;79;21415;-73
2021/06/23 09:06:55;;;;;;;12.58;3.27;;;;;;;31.47;100.00;98761.27;1758946;79;20978;-74
2021/06/23 09:09:25;;;;;;;25.62;3.02;;;;;;;31.57;100.00;98757.48;1767901;79;20896;-73
2021/06/23 09:12:04;;;;;;;16.02;3.17;;;;;;;31.68;100.00;98765.10;1759038;80;21396;-73
2021/06/23 09:14:34;;;;;;;13.45;3.00;;;;;;;31.76;100.00;98766.63;1758798;80;20896;-69
2021/06/23 09:17:11;;;;;;;12.85;3.02;;;;;;;31.79;100.00;98772.63;1758986;81;20844;-75
2021/06/23 09:19:49;;;;;;;15.75;2.70;;;;;;;31.80;100.00;98772.13;1723363;83;20935;-76
2021/06/23 09:22:41;;;;;;;11.70;2.47;;;;;;;31.85;100.00;98773.38;1723103;82;20946;-74
2021/06/23 09:25:18;;;;;;;15.50;2.80;;;;;;;31.91;100.00;98771.41;1723032;83;21117;-75
2021/06/23 09:27:49;;;;;;;12.68;3.27;;;;;;;32.02;100.00;98778.51;1722768;82;20910;-75
2021/06/23 09:30:37;;;;;;;17.30;2.83;;;;;;;32.12;100.00;98770.25;1722502;82;20895;-71
2021/06/23 09:33:16;;;;;;;13.83;3.12;;;;;;;32.23;100.00;98773.64;1722156;82;20895;-66
2021/06/23 09:36:08;;;;;;;45.40;4.95;;;;;;;32.38;100.00;98771.26;1722409;82;20899;-68
2021/06/23 09:38:45;;;;;;;38.42;4.50;;;;;;;32.43;100.00;98781.20;1710130;82;20935;-75
2021/06/23 09:41:29;;;;;;;14.58;2.90;;;;;;;32.41;100.00;98767.36;1723089;82;20902;-73
2021/06/23 09:44:00;;;;;;;14.18;3.40;;;;;;;32.41;100.00;98757.29;1723013;82;20911;-74
2021/06/23 09:46:33;;;;;;;11.85;2.87;;;;;;;32.46;100.00;98765.87;1722374;83;20899;-75
2021/06/23 09:49:20;;;;;;;12.55;3.20;;;;;;;32.50;100.00;98768.63;1722798;82;20911;-64
2021/06/23 09:52:06;;;;;;;16.23;2.95;;;;;;;32.51;100.00;98763.52;1718854;82;21791;-69
2021/06/23 09:54:34;;;;;;;11.90;2.33;;;;;;;32.55;100.00;98767.66;1691850;84;20945;-69
2021/06/23 09:57:13;;;;;;;16.10;2.52;;;;;;;32.62;100.00;98768.38;1706108;83;21561;-69
2021/06/23 09:59:43;;;;;;;8.53;2.52;;;;;;;32.71;100.00;98766.09;1709177;83;20872;-76
2021/06/23 10:02:30;;;;;;;12.53;2.75;;;;;;;32.80;100.00;98756.98;1710501;84;20943;-77
2021/06/23 10:05:06;;;;;;;13.40;2.22;;;;;;;32.87;100.00;98763.52;1710536;82;21097;-77
2021/06/23 10:07:52;;;;;;;7.67;2.42;;;;;;;32.90;100.00;98754.14;1689362;82;20988;-77
2021/06/23 10:10:24;;;;;;;9.05;1.95;;;;;;;32.91;100.00;98743.56;1689068;83;20892;-77
2021/06/23 10:12:57;;;;;;;8.55;2.17;;;;;;;32.93;100.00;98745.63;1711151;82;20900;-77
2021/06/23 10:15:31;;;;;;;;;;;;;;;32.95;100.00;98740.34;1713787;84;20896;-77
2021/06/23 10:18:00;;;;;;;7.58;2.12;;;;;;;33.01;100.00;98738.34;1711464;82;20143;-77
2021/06/23 10:20:28;;;;;;;14.13;2.20;;;;;;;33.02;100.00;98740.05;1711083;82;20907;-76
2021/06/23 10:22:57;;;;;;;8.63;2.42;;;;;;;33.07;100.00;98730.00;1711073;84;20884;-76
2021/06/23 10:25:27;;;;;;;9.48;2.20;;;;;;;33.16;100.00;98741.36;1711395;84;20887;-77
2021/06/23 10:27:56;;;;;;;9.55;2.45;;;;;;;33.21;99.50;98731.30;1711378;82;20864;-77
2021/06/23 10:30:29;;;;;;;;;;;;;;;33.23;100.00;98727.89;1713717;82;21140;-77
2021/06/23 10:32:58;;;;;;;8.20;2.20;;;;;;;33.28;99.25;98725.53;1711367;82;20398;-77
2021/06/23 10:53:51;;;;;;;9.70;2.50;;;;;;;34.31;93.16;98716.16;1749441;77;23477;-78
2021/06/23 10:56:43;;;;;;;8.83;2.40;;;;;;;34.34;92.88;98723.55;1730835;82;20930;-78
2021/06/23 10:59:34;;;;;;;5.75;1.90;;;;;;;34.31;91.07;98717.02;1695430;82;20880;-78
2021/06/23 11:02:11;;;;;;;8.75;2.10;;;;;;;34.27;94.66;98721.13;1730745;81;21468;-77
2021/06/23 11:05:06;;;;;;;7.87;1.80;;;;;;;34.21;94.45;98722.31;1733136;82;21485;-78
2021/06/23 11:07:51;;;;;;;57.45;4.83;;;;;;;34.15;91.96;98722.48;1723414;82;21428;-78
2021/06/23 11:10:27;;;;;;;7.15;1.80;;;;;;;34.05;89.69;98721.75;1726205;81;20943;-78
2021/06/23 11:13:08;;;;;;;6.90;2.33;;;;;;;33.92;89.17;98729.59;1735498;81;20924;-78
2021/06/23 11:15:41;;;;;;;7.25;2.08;;;;;;;33.73;90.93;98730.72;1732192;82;21524;-77
2021/06/23 11:18:33;;;;;;;6.33;1.80;;;;;;;33.58;91.00;98732.34;1724090;82;20971;-76
2021/06/23 11:21:15;;;;;;;53.98;4.90;;;;;;;33.46;94.03;98734.52;1732975;81;20971;-77
2021/06/23 11:24:01;;;;;;;7.97;2.40;;;;;;;33.33;94.95;98736.86;1726311;81;21075;-77
2021/06/23 11:26:38;;;;;;;21.50;3.27;;;;;;;33.24;97.00;98732.34;1726193;82;21561;-77
2021/06/23 11:29:14;;;;;;;39.55;3.95;;;;;;;33.17;95.88;98743.06;1730126;82;20896;-76
2021/06/23 11:31:54;;;;;;;6.75;2.20;;;;;;;33.12;97.35;98738.09;1720289;82;20978;-78
2021/06/23 11:34:51;;;;;;;23.52;2.92;;;;;;;33.08;98.52;98744.87;1726208;81;20885;-77
2021/06/23 11:37:12;;;;;;;5.03;2.00;;;;;;;33.02;99.12;98740.56;1727278;82;21644;-77
2021/06/23 11:39:40;;;;;;;7.67;2.70;;;;;;;33.01;100.00;98744.31;1720020;82;21774;-76
2021/06/23 11:42:07;;;;;;;14.15;3.75;;;;;;;32.95;100.00;98747.18;1739464;82;20904;-76
2021/06/23 11:44:37;;;;;;;14.53;3.05;;;;;;;32.90;100.00;98739.12;1724138;82;21017;-77
2021/06/23 11:47:05;;;;;;;17.05;3.10;;;;;;;32.87;100.00;98741.66;1732379;82;21104;-77
2021/06/23 11:49:35;;;;;;;12.15;2.42;;;;;;;32.82;100.00;98743.52;1720121;82;20903;-76
2021/06/23 11:52:06;;;;;;;11.50;2.30;;;;;;;32.76;100.00;98743.27;1729118;81;21229;-76
2021/06/23 11:54:33;;;;;;;4.97;1.85;;;;;;;32.69;100.00;98749.02;1725571;81;20891;-77
2021/06/23 11:57:01;;;;;;;9.53;1.95;;;;;;;32.63;100.00;98753.71;1725520;82;20883;-78
2021/06/23 11:59:28;;;;;;;5.65;2.15;;;;;;;32.53;100.00;98753.30;1735269;82;21708;-76
2021/06/23 12:01:57;;;;;;;9.55;2.05;;;;;;;32.45;100.00;98751.87;1725421;82;20994;-77
2021/06/23 12:04:26;;;;;;;6.95;2.17;;;;;;;32.35;100.00;98749.73;1730322;81;21159;-76
2021/06/23 12:06:55;;;;;;;6.37;2.80;;;;;;;32.30;100.00;98749.34;1726815;82;20935;-76
2021/06/23 12:09:22;;;;;;;6.85;2.35;;;;;;;32.30;100.00;98750.71;1721162;81;21462;-77
2021/06/23 12:11:51;;;;;;;9.00;2.55;;;;;;;32.38;100.00;98747.20;1731710;82;21418;-77
2021/06/23 12:14:19;;;;;;;6.10;2.70;;;;;;;32.49;100.00;98747.80;1731443;82;20899;-77
2021/06/23 12:16:47;;;;;;;11.35;2.98;;;;;;;32.56;100.00;98754.34;1725351;82;21983;-78